createdAt,value
2022-12-14T00:00:47.602Z,1004.54
2022-12-14T00:01:49.050Z,1004.55
2022-12-14T00:02:47.636Z,1004.49
2022-12-14T00:03:47.600Z,1004.48
2022-12-14T00:04:47.542Z,1004.44
2022-12-14T00:05:47.544Z,1004.43
2022-12-14T00:06:47.547Z,1004.43
2022-12-14T00:07:49.157Z,1004.36
2022-12-14T00:08:47.549Z,1004.41
2022-12-14T00:09:47.557Z,1004.39
2022-12-14T00:10:47.558Z,1004.39
2022-12-14T00:11:47.558Z,1004.42
2022-12-14T00:12:47.559Z,1004.36
2022-12-14T00:13:48.899Z,1004.37
2022-12-14T00:14:47.564Z,1004.41
2022-12-14T00:15:47.588Z,1004.36
2022-12-14T00:16:47.569Z,1004.35
2022-12-14T00:17:47.573Z,1004.30
2022-12-14T00:18:47.573Z,1004.28
2022-12-14T00:19:48.925Z,1004.27
2022-12-14T00:20:47.578Z,1004.25
2022-12-14T00:21:47.578Z,1004.24
2022-12-14T00:22:47.583Z,1004.28
2022-12-14T00:23:47.583Z,1004.23
2022-12-14T00:24:47.585Z,1004.24
2022-12-14T00:25:48.841Z,1004.22
2022-12-14T00:26:47.590Z,1004.21
2022-12-14T00:27:47.594Z,1004.18
2022-12-14T00:28:47.597Z,1004.17
2022-12-14T00:29:47.597Z,1004.21
2022-12-14T00:30:47.644Z,1004.14
2022-12-14T00:31:48.681Z,1004.14
2022-12-14T00:32:47.604Z,1004.15
2022-12-14T00:33:47.609Z,1004.12
2022-12-14T00:34:47.610Z,1004.15
2022-12-14T00:35:47.612Z,1004.12
2022-12-14T00:36:47.613Z,1004.16
2022-12-14T00:37:49.051Z,1004.17
2022-12-14T00:38:47.618Z,1004.17
2022-12-14T00:39:47.624Z,1004.19
2022-12-14T00:40:47.623Z,1004.18
2022-12-14T00:41:47.622Z,1004.16
2022-12-14T00:42:47.627Z,1004.14
2022-12-14T00:43:49.718Z,1004.13
2022-12-14T00:44:47.632Z,1004.11
2022-12-14T00:45:47.634Z,1004.14
2022-12-14T00:46:47.718Z,1004.14
2022-12-14T00:47:47.637Z,1004.07
2022-12-14T00:48:47.639Z,1004.10
2022-12-14T00:49:48.543Z,1004.12
2022-12-14T00:50:48.725Z,1004.14
2022-12-14T00:51:47.649Z,1004.15
2022-12-14T00:52:47.649Z,1004.15
2022-12-14T00:53:47.653Z,1004.09
2022-12-14T00:54:47.655Z,1004.18
2022-12-14T00:55:49.279Z,1004.15
2022-12-14T00:56:47.659Z,1004.15
2022-12-14T00:57:47.660Z,1004.14
2022-12-14T00:58:47.666Z,1004.14
2022-12-14T00:59:47.667Z,1004.17
2022-12-14T01:00:47.665Z,1004.12
2022-12-14T01:01:47.780Z,1004.15
2022-12-14T01:02:47.706Z,1004.14
2022-12-14T01:03:47.700Z,1004.19
2022-12-14T01:04:47.677Z,1004.17
2022-12-14T01:05:49.237Z,1004.19
2022-12-14T01:06:47.678Z,1004.14
2022-12-14T01:07:48.846Z,1004.12
2022-12-14T01:08:47.686Z,1004.14
2022-12-14T01:09:47.685Z,1004.16
2022-12-14T01:10:47.690Z,1004.13
2022-12-14T01:11:47.695Z,1004.14
2022-12-14T01:12:47.693Z,1004.12
2022-12-14T01:13:49.470Z,1004.08
2022-12-14T01:14:47.698Z,1004.06
2022-12-14T01:15:47.788Z,1004.04
2022-12-14T01:16:47.705Z,1004.01
2022-12-14T01:17:47.703Z,1004.00
2022-12-14T01:18:47.707Z,1003.99
2022-12-14T01:19:49.014Z,1003.97
2022-12-14T01:20:47.711Z,1003.98
2022-12-14T01:21:47.713Z,1003.99
2022-12-14T01:22:47.714Z,1003.97
2022-12-14T01:23:47.733Z,1003.97
2022-12-14T01:24:47.720Z,1003.96
2022-12-14T01:25:48.960Z,1004.02
2022-12-14T01:26:47.722Z,1004.03
2022-12-14T01:27:47.727Z,1003.99
2022-12-14T01:28:47.729Z,1004.01
2022-12-14T01:29:47.730Z,1003.98
2022-12-14T01:30:47.762Z,1003.97
2022-12-14T01:31:48.571Z,1003.96
2022-12-14T01:32:47.737Z,1003.98
2022-12-14T01:33:47.737Z,1003.95
2022-12-14T01:34:47.739Z,1003.94
2022-12-14T01:35:47.743Z,1003.97
2022-12-14T01:36:47.744Z,1004.01
2022-12-14T01:37:49.079Z,1003.92
2022-12-14T01:38:47.754Z,1003.91
2022-12-14T01:39:47.751Z,1003.92
2022-12-14T01:40:47.752Z,1003.91
2022-12-14T01:41:47.752Z,1003.89
2022-12-14T01:42:47.754Z,1003.90
2022-12-14T01:43:48.808Z,1003.89
2022-12-14T01:44:47.760Z,1003.88
2022-12-14T01:45:47.762Z,1003.90
2022-12-14T01:46:47.802Z,1003.89
2022-12-14T01:47:47.765Z,1003.89
2022-12-14T01:48:47.767Z,1003.93
2022-12-14T01:49:47.767Z,1003.91
2022-12-14T01:50:47.772Z,1003.90
2022-12-14T01:51:47.773Z,1003.85
2022-12-14T01:52:47.780Z,1003.85
2022-12-14T01:53:47.778Z,1003.85
2022-12-14T01:54:48.957Z,1003.82
2022-12-14T01:55:48.717Z,1003.83
2022-12-14T01:56:47.784Z,1003.79
2022-12-14T01:57:47.786Z,1003.80
2022-12-14T01:58:47.787Z,1003.77
2022-12-14T01:59:47.788Z,1003.77
2022-12-14T02:00:47.793Z,1003.78
2022-12-14T02:01:48.282Z,1003.83
2022-12-14T02:02:47.906Z,1003.83
2022-12-14T02:03:47.876Z,1003.75
2022-12-14T02:04:47.797Z,1003.75
2022-12-14T02:05:47.800Z,1003.73
2022-12-14T02:06:47.803Z,1003.77
2022-12-14T02:07:48.843Z,1003.79
2022-12-14T02:08:47.807Z,1003.80
2022-12-14T02:09:47.810Z,1003.75
2022-12-14T02:10:47.812Z,1003.78
2022-12-14T02:11:47.816Z,1003.81
2022-12-14T02:12:47.817Z,1003.80
2022-12-14T02:13:48.855Z,1003.79
2022-12-14T02:14:47.819Z,1003.75
2022-12-14T02:15:47.848Z,1003.78
2022-12-14T02:16:47.822Z,1003.77
2022-12-14T02:17:47.827Z,1003.76
2022-12-14T02:18:47.825Z,1003.72
2022-12-14T02:19:47.828Z,1003.74
2022-12-14T02:20:47.829Z,1003.74
2022-12-14T02:21:47.832Z,1003.73
2022-12-14T02:22:47.834Z,1003.77
2022-12-14T02:23:47.836Z,1003.77
2022-12-14T02:24:47.839Z,1003.76
2022-12-14T02:25:49.286Z,1003.76
2022-12-14T02:26:47.843Z,1003.76
2022-12-14T02:27:47.844Z,1003.78
2022-12-14T02:28:47.849Z,1003.76
2022-12-14T02:29:47.846Z,1003.79
2022-12-14T02:30:47.854Z,1003.78
2022-12-14T02:31:48.926Z,1003.75
2022-12-14T02:32:47.852Z,1003.70
2022-12-14T02:33:47.855Z,1003.75
2022-12-14T02:34:47.859Z,1003.72
2022-12-14T02:35:47.859Z,1003.71
2022-12-14T02:36:47.859Z,1003.73
2022-12-14T02:37:49.239Z,1003.71
2022-12-14T02:38:47.865Z,1003.77
2022-12-14T02:39:47.870Z,1003.73
2022-12-14T02:40:47.869Z,1003.74
2022-12-14T02:41:47.869Z,1003.72
2022-12-14T02:42:47.873Z,1003.71
2022-12-14T02:43:47.873Z,1003.69
2022-12-14T02:44:47.874Z,1003.76
2022-12-14T02:45:47.878Z,1003.76
2022-12-14T02:46:50.469Z,1003.69
2022-12-14T02:47:47.880Z,1003.68
2022-12-14T02:48:47.886Z,1003.73
2022-12-14T02:49:49.444Z,1003.70
2022-12-14T02:50:47.885Z,1003.67
2022-12-14T02:51:47.887Z,1003.66
2022-12-14T02:52:47.889Z,1003.65
2022-12-14T02:53:47.891Z,1003.63
2022-12-14T02:54:47.892Z,1003.61
2022-12-14T02:55:47.892Z,1003.63
2022-12-14T02:56:47.895Z,1003.64
2022-12-14T02:57:47.897Z,1003.66
2022-12-14T02:58:47.900Z,1003.65
2022-12-14T02:59:47.906Z,1003.68
2022-12-14T03:00:47.982Z,1003.63
2022-12-14T03:01:48.064Z,1003.62
2022-12-14T03:02:48.026Z,1003.59
2022-12-14T03:03:47.912Z,1003.62
2022-12-14T03:04:47.913Z,1003.58
2022-12-14T03:05:47.913Z,1003.57
2022-12-14T03:06:47.914Z,1003.56
2022-12-14T03:07:48.770Z,1003.60
2022-12-14T03:08:47.919Z,1003.58
2022-12-14T03:09:47.920Z,1003.55
2022-12-14T03:10:47.923Z,1003.53
2022-12-14T03:11:47.923Z,1003.49
2022-12-14T03:12:47.929Z,1003.49
2022-12-14T03:13:49.315Z,1003.50
2022-12-14T03:14:47.933Z,1003.49
2022-12-14T03:15:47.939Z,1003.48
2022-12-14T03:16:47.934Z,1003.50
2022-12-14T03:17:49.035Z,1003.48
2022-12-14T03:18:47.937Z,1003.51
2022-12-14T03:19:49.010Z,1003.50
2022-12-14T03:20:47.940Z,1003.47
2022-12-14T03:21:47.939Z,1003.47
2022-12-14T03:22:47.943Z,1003.45
2022-12-14T03:23:47.943Z,1003.40
2022-12-14T03:24:47.947Z,1003.40
2022-12-14T03:25:48.634Z,1003.38
2022-12-14T03:26:47.949Z,1003.38
2022-12-14T03:27:47.955Z,1003.36
2022-12-14T03:28:47.952Z,1003.36
2022-12-14T03:29:47.956Z,1003.33
2022-12-14T03:31:02.777Z,1003.40
2022-12-14T03:31:47.958Z,1003.38
2022-12-14T03:32:47.958Z,1003.37
2022-12-14T03:33:47.961Z,1003.32
2022-12-14T03:34:47.964Z,1003.32
2022-12-14T03:35:47.968Z,1003.29
2022-12-14T03:36:47.964Z,1003.26
2022-12-14T03:37:51.536Z,1003.22
2022-12-14T03:38:47.974Z,1003.24
2022-12-14T03:39:47.972Z,1003.23
2022-12-14T03:40:47.972Z,1003.24
2022-12-14T03:41:48.928Z,1003.19
2022-12-14T03:42:49.600Z,1003.22
2022-12-14T03:43:49.819Z,1003.21
2022-12-14T03:44:49.349Z,1003.21
2022-12-14T03:45:48.019Z,1003.21
2022-12-14T03:46:47.983Z,1003.21
2022-12-14T03:47:47.986Z,1003.21
2022-12-14T03:48:47.985Z,1003.20
2022-12-14T03:49:49.066Z,1003.15
2022-12-14T03:50:47.990Z,1003.16
2022-12-14T03:51:47.992Z,1003.17
2022-12-14T03:52:47.992Z,1003.17
2022-12-14T03:53:47.994Z,1003.14
2022-12-14T03:54:47.994Z,1003.14
2022-12-14T03:55:49.037Z,1003.12
2022-12-14T03:56:52.790Z,1003.14
2022-12-14T03:57:48.001Z,1003.08
2022-12-14T03:58:52.399Z,1003.08
2022-12-14T03:59:48.005Z,1003.12
2022-12-14T04:00:48.033Z,1003.12
2022-12-14T04:01:49.077Z,1003.09
2022-12-14T04:02:48.091Z,1003.04
2022-12-14T04:03:48.008Z,1003.05
2022-12-14T04:04:48.012Z,1002.99
2022-12-14T04:05:49.331Z,1003.03
2022-12-14T04:06:48.020Z,1003.03
2022-12-14T04:07:48.613Z,1003.00
2022-12-14T04:08:48.020Z,1003.02
2022-12-14T04:09:48.018Z,1002.97
2022-12-14T04:10:48.021Z,1002.98
2022-12-14T04:11:48.023Z,1002.96
2022-12-14T04:12:51.257Z,1002.96
2022-12-14T04:13:49.021Z,1002.94
2022-12-14T04:14:48.028Z,1002.95
2022-12-14T04:15:48.028Z,1002.95
2022-12-14T04:16:48.051Z,1002.95
2022-12-14T04:17:48.034Z,1002.92
2022-12-14T04:18:48.034Z,1002.92
2022-12-14T04:19:48.793Z,1002.93
2022-12-14T04:20:48.040Z,1002.97
2022-12-14T04:21:48.041Z,1002.96
2022-12-14T04:22:48.038Z,1002.94
2022-12-14T04:23:48.050Z,1002.89
2022-12-14T04:24:48.044Z,1002.91
2022-12-14T04:25:48.042Z,1002.87
2022-12-14T04:26:48.046Z,1002.90
2022-12-14T04:27:48.047Z,1002.87
2022-12-14T04:28:48.048Z,1002.89
2022-12-14T04:29:48.051Z,1002.89
2022-12-14T04:30:48.053Z,1002.88
2022-12-14T04:31:49.131Z,1002.84
2022-12-14T04:32:48.081Z,1002.86
2022-12-14T04:33:48.059Z,1002.85
2022-12-14T04:34:48.058Z,1002.83
2022-12-14T04:35:48.061Z,1002.85
2022-12-14T04:36:48.062Z,1002.89
2022-12-14T04:37:48.847Z,1002.86
2022-12-14T04:38:48.064Z,1002.78
2022-12-14T04:39:48.069Z,1002.80
2022-12-14T04:40:48.068Z,1002.77
2022-12-14T04:41:48.069Z,1002.75
2022-12-14T04:42:48.071Z,1002.78
2022-12-14T04:43:49.199Z,1002.77
2022-12-14T04:44:48.074Z,1002.75
2022-12-14T04:45:48.106Z,1002.72
2022-12-14T04:46:48.078Z,1002.73
2022-12-14T04:47:48.079Z,1002.69
2022-12-14T04:48:48.080Z,1002.71
2022-12-14T04:49:49.081Z,1002.69
2022-12-14T04:50:48.082Z,1002.66
2022-12-14T04:51:48.086Z,1002.64
2022-12-14T04:52:48.085Z,1002.66
2022-12-14T04:53:48.089Z,1002.62
2022-12-14T04:54:48.089Z,1002.61
2022-12-14T04:55:48.864Z,1002.58
2022-12-14T04:56:48.094Z,1002.57
2022-12-14T04:57:48.102Z,1002.58
2022-12-14T04:58:48.095Z,1002.54
2022-12-14T04:59:48.098Z,1002.57
2022-12-14T05:00:48.163Z,1002.53
2022-12-14T05:01:49.113Z,1002.58
2022-12-14T05:02:48.162Z,1002.58
2022-12-14T05:03:48.104Z,1002.57
2022-12-14T05:04:48.104Z,1002.53
2022-12-14T05:05:48.104Z,1002.51
2022-12-14T05:06:48.108Z,1002.49
2022-12-14T05:07:48.686Z,1002.48
2022-12-14T05:08:48.110Z,1002.45
2022-12-14T05:09:48.112Z,1002.45
2022-12-14T05:10:48.118Z,1002.45
2022-12-14T05:11:55.151Z,1002.49
2022-12-14T05:12:48.115Z,1002.46
2022-12-14T05:13:48.901Z,1002.42
2022-12-14T05:14:48.119Z,1002.43
2022-12-14T05:15:48.121Z,1002.41
2022-12-14T05:16:49.124Z,1002.40
2022-12-14T05:17:48.129Z,1002.42
2022-12-14T05:18:48.125Z,1002.43
2022-12-14T05:19:48.662Z,1002.39
2022-12-14T05:20:48.127Z,1002.43
2022-12-14T05:21:48.133Z,1002.40
2022-12-14T05:22:48.129Z,1002.40
2022-12-14T05:23:48.136Z,1002.35
2022-12-14T05:24:48.132Z,1002.33
2022-12-14T05:25:48.896Z,1002.30
2022-12-14T05:26:48.136Z,1002.33
2022-12-14T05:27:48.141Z,1002.26
2022-12-14T05:28:50.490Z,1002.30
2022-12-14T05:29:48.141Z,1002.25
2022-12-14T05:30:49.028Z,1002.27
2022-12-14T05:31:49.337Z,1002.26
2022-12-14T05:32:48.144Z,1002.25
2022-12-14T05:33:48.146Z,1002.22
2022-12-14T05:34:48.150Z,1002.25
2022-12-14T05:35:48.147Z,1002.25
2022-12-14T05:36:48.149Z,1002.20
2022-12-14T05:37:49.444Z,1002.17
2022-12-14T05:38:48.154Z,1002.14
2022-12-14T05:39:48.157Z,1002.14
2022-12-14T05:40:48.160Z,1002.11
2022-12-14T05:41:48.161Z,1002.10
2022-12-14T05:42:53.850Z,1002.10
2022-12-14T05:43:49.002Z,1002.11
2022-12-14T05:44:48.163Z,1002.09
2022-12-14T05:45:48.182Z,1002.07
2022-12-14T05:46:48.163Z,1002.05
2022-12-14T05:47:48.167Z,1002.01
2022-12-14T05:48:49.560Z,1001.96
2022-12-14T05:49:49.312Z,1001.92
2022-12-14T05:50:48.170Z,1001.89
2022-12-14T05:51:48.174Z,1001.88
2022-12-14T05:52:48.173Z,1001.87
2022-12-14T05:53:48.174Z,1001.86
2022-12-14T05:54:48.175Z,1001.80
2022-12-14T05:55:48.179Z,1001.84
2022-12-14T05:56:48.178Z,1001.79
2022-12-14T05:57:48.180Z,1001.78
2022-12-14T05:58:48.182Z,1001.77
2022-12-14T05:59:48.185Z,1001.78
2022-12-14T06:00:48.184Z,1001.74
2022-12-14T06:01:49.496Z,1001.74
2022-12-14T06:02:48.376Z,1001.72
2022-12-14T06:03:48.197Z,1001.74
2022-12-14T06:04:48.226Z,1001.71
2022-12-14T06:05:48.191Z,1001.76
2022-12-14T06:06:48.193Z,1001.76
2022-12-14T06:07:48.193Z,1001.72
2022-12-14T06:08:48.194Z,1001.71
2022-12-14T06:09:48.207Z,1001.77
2022-12-14T06:10:48.197Z,1001.75
2022-12-14T06:11:48.200Z,1001.75
2022-12-14T06:12:48.200Z,1001.74
2022-12-14T06:13:48.205Z,1001.78
2022-12-14T06:14:48.209Z,1001.76
2022-12-14T06:15:48.244Z,1001.82
2022-12-14T06:16:48.206Z,1001.81
2022-12-14T06:17:48.209Z,1001.79
2022-12-14T06:18:48.214Z,1001.78
2022-12-14T06:19:49.573Z,1001.78
2022-12-14T06:20:48.210Z,1001.77
2022-12-14T06:21:48.214Z,1001.73
2022-12-14T06:22:48.215Z,1001.75
2022-12-14T06:23:48.220Z,1001.73
2022-12-14T06:24:48.217Z,1001.72
2022-12-14T06:25:48.218Z,1001.73
2022-12-14T06:26:48.220Z,1001.72
2022-12-14T06:27:48.222Z,1001.76
2022-12-14T06:28:48.224Z,1001.71
2022-12-14T06:29:48.223Z,1001.75
2022-12-14T06:30:48.246Z,1001.71
2022-12-14T06:31:49.149Z,1001.74
2022-12-14T06:32:48.227Z,1001.74
2022-12-14T06:33:48.227Z,1001.69
2022-12-14T06:34:48.230Z,1001.70
2022-12-14T06:35:48.230Z,1001.66
2022-12-14T06:36:48.234Z,1001.69
2022-12-14T06:37:48.884Z,1001.66
2022-12-14T06:38:48.243Z,1001.63
2022-12-14T06:39:53.911Z,1001.67
2022-12-14T06:40:48.237Z,1001.65
2022-12-14T06:41:48.237Z,1001.66
2022-12-14T06:42:48.246Z,1001.68
2022-12-14T06:43:49.488Z,1001.62
2022-12-14T06:44:48.244Z,1001.66
2022-12-14T06:45:48.243Z,1001.62
2022-12-14T06:46:48.303Z,1001.64
2022-12-14T06:47:48.246Z,1001.58
2022-12-14T06:48:48.247Z,1001.60
2022-12-14T06:49:48.250Z,1001.64
2022-12-14T06:50:48.253Z,1001.61
2022-12-14T06:51:48.252Z,1001.57
2022-12-14T06:52:48.252Z,1001.51
2022-12-14T06:53:48.253Z,1001.55
2022-12-14T06:54:48.259Z,1001.53
2022-12-14T06:55:49.388Z,1001.52
2022-12-14T06:56:48.265Z,1001.55
2022-12-14T06:57:48.258Z,1001.56
2022-12-14T06:58:48.260Z,1001.50
2022-12-14T06:59:48.262Z,1001.52
2022-12-14T07:00:48.264Z,1001.46
2022-12-14T07:01:49.712Z,1001.49
2022-12-14T07:02:48.355Z,1001.54
2022-12-14T07:03:48.303Z,1001.53
2022-12-14T07:04:48.268Z,1001.56
2022-12-14T07:05:49.188Z,1001.53
2022-12-14T07:06:48.272Z,1001.53
2022-12-14T07:07:48.272Z,1001.49
2022-12-14T07:08:48.276Z,1001.48
2022-12-14T07:09:48.275Z,1001.48
2022-12-14T07:10:48.276Z,1001.44
2022-12-14T07:11:48.278Z,1001.45
2022-12-14T07:12:48.279Z,1001.46
2022-12-14T07:13:48.949Z,1001.42
2022-12-14T07:14:48.281Z,1001.46
2022-12-14T07:15:48.381Z,1001.44
2022-12-14T07:16:48.991Z,1001.43
2022-12-14T07:17:48.285Z,1001.43
2022-12-14T07:18:48.289Z,1001.43
2022-12-14T07:19:49.017Z,1001.44
2022-12-14T07:20:48.287Z,1001.41
2022-12-14T07:21:48.287Z,1001.39
2022-12-14T07:22:49.057Z,1001.38
2022-12-14T07:23:48.296Z,1001.38
2022-12-14T07:24:48.294Z,1001.34
2022-12-14T07:25:48.296Z,1001.34
2022-12-14T07:26:48.295Z,1001.31
2022-12-14T07:27:48.295Z,1001.29
2022-12-14T07:28:48.299Z,1001.32
2022-12-14T07:29:48.299Z,1001.27
2022-12-14T07:30:48.355Z,1001.29
2022-12-14T07:31:49.368Z,1001.30
2022-12-14T07:32:48.301Z,1001.27
2022-12-14T07:33:48.304Z,1001.25
2022-12-14T07:34:48.308Z,1001.23
2022-12-14T07:35:48.309Z,1001.20
2022-12-14T07:36:48.307Z,1001.17
2022-12-14T07:37:49.195Z,1001.12
2022-12-14T07:38:48.310Z,1001.13
2022-12-14T07:39:48.314Z,1001.11
2022-12-14T07:40:48.315Z,1001.11
2022-12-14T07:41:48.316Z,1001.14
2022-12-14T07:42:48.320Z,1001.12
2022-12-14T07:43:49.767Z,1001.12
2022-12-14T07:44:48.319Z,1001.14
2022-12-14T07:45:48.318Z,1001.17
2022-12-14T07:46:48.368Z,1001.12
2022-12-14T07:47:48.323Z,1001.11
2022-12-14T07:48:48.323Z,1001.13
2022-12-14T07:49:48.327Z,1001.08
2022-12-14T07:50:48.328Z,1001.10
2022-12-14T07:51:48.327Z,1001.12
2022-12-14T07:52:48.328Z,1001.13
2022-12-14T07:53:48.330Z,1001.16
2022-12-14T07:54:48.336Z,1001.19
2022-12-14T07:55:48.332Z,1001.19
2022-12-14T07:56:48.336Z,1001.22
2022-12-14T07:57:48.339Z,1001.17
2022-12-14T07:58:48.338Z,1001.17
2022-12-14T07:59:50.715Z,1001.18
2022-12-14T08:00:48.339Z,1001.19
2022-12-14T08:01:48.433Z,1001.18
2022-12-14T08:02:48.426Z,1001.23
2022-12-14T08:03:48.346Z,1001.26
2022-12-14T08:04:48.387Z,1001.23
2022-12-14T08:05:48.347Z,1001.22
2022-12-14T08:06:48.350Z,1001.24
2022-12-14T08:07:48.353Z,1001.21
2022-12-14T08:08:48.351Z,1001.18
2022-12-14T08:09:48.353Z,1001.23
2022-12-14T08:10:48.373Z,1001.18
2022-12-14T08:11:48.356Z,1001.19
2022-12-14T08:12:48.358Z,1001.21
2022-12-14T08:13:48.359Z,1001.24
2022-12-14T08:14:48.361Z,1001.25
2022-12-14T08:15:48.388Z,1001.23
2022-12-14T08:16:48.366Z,1001.23
2022-12-14T08:17:48.366Z,1001.21
2022-12-14T08:18:48.370Z,1001.16
2022-12-14T08:19:48.371Z,1001.20
2022-12-14T08:20:53.001Z,1001.12
2022-12-14T08:21:48.374Z,1001.14
2022-12-14T08:22:48.376Z,1001.14
2022-12-14T08:23:48.378Z,1001.16
2022-12-14T08:24:49.663Z,1001.10
2022-12-14T08:25:48.380Z,1001.13
2022-12-14T08:26:49.447Z,1001.11
2022-12-14T08:27:48.386Z,1001.13
2022-12-14T08:28:48.388Z,1001.12
2022-12-14T08:29:48.388Z,1001.13
2022-12-14T08:30:48.392Z,1001.06
2022-12-14T08:31:48.506Z,1001.06
2022-12-14T08:32:48.394Z,1001.05
2022-12-14T08:33:48.408Z,1001.05
2022-12-14T08:34:48.399Z,1001.02
2022-12-14T08:35:48.398Z,1001.04
2022-12-14T08:36:48.400Z,1001.02
2022-12-14T08:37:48.403Z,1001.03
2022-12-14T08:38:49.029Z,1001.03
2022-12-14T08:39:49.660Z,1001.01
2022-12-14T08:40:48.409Z,1001.05
2022-12-14T08:41:48.409Z,1001.00
2022-12-14T08:42:48.414Z,1001.01
2022-12-14T08:43:48.415Z,1000.99
2022-12-14T08:44:48.420Z,1000.97
2022-12-14T08:45:48.419Z,1000.98
2022-12-14T08:46:48.468Z,1000.97
2022-12-14T08:47:48.424Z,1000.96
2022-12-14T08:48:48.897Z,1001.01
2022-12-14T08:49:48.427Z,1001.01
2022-12-14T08:50:49.840Z,1001.04
2022-12-14T08:51:48.431Z,1001.02
2022-12-14T08:52:48.434Z,1000.94
2022-12-14T08:53:48.438Z,1000.99
2022-12-14T08:54:48.440Z,1000.96
2022-12-14T08:55:48.438Z,1000.88
2022-12-14T08:56:49.296Z,1000.88
2022-12-14T08:57:48.445Z,1000.92
2022-12-14T08:58:48.447Z,1000.90
2022-12-14T09:00:03.575Z,1000.96
2022-12-14T09:00:48.473Z,1000.94
2022-12-14T09:01:48.664Z,1000.91
2022-12-14T09:02:48.552Z,1000.92
2022-12-14T09:03:48.459Z,1000.87
2022-12-14T09:04:48.459Z,1000.91
2022-12-14T09:05:48.465Z,1000.89
2022-12-14T09:06:48.464Z,1000.89
2022-12-14T09:07:48.472Z,1000.86
2022-12-14T09:08:49.767Z,1000.85
2022-12-14T09:09:48.478Z,1000.84
2022-12-14T09:10:48.476Z,1000.84
2022-12-14T09:11:48.476Z,1000.86
2022-12-14T09:12:48.479Z,1000.91
2022-12-14T09:13:48.481Z,1000.90
2022-12-14T09:14:49.302Z,1000.94
2022-12-14T09:15:48.489Z,1000.90
2022-12-14T09:16:48.539Z,1000.96
2022-12-14T09:17:48.489Z,1000.90
2022-12-14T09:18:48.498Z,1000.89
2022-12-14T09:19:48.497Z,1000.92
2022-12-14T09:20:48.500Z,1000.92
2022-12-14T09:21:48.549Z,1000.92
2022-12-14T09:22:48.504Z,1000.86
2022-12-14T09:23:50.316Z,1000.86
2022-12-14T09:24:48.508Z,1000.88
2022-12-14T09:25:48.519Z,1000.82
2022-12-14T09:26:48.517Z,1000.79
2022-12-14T09:27:48.519Z,1000.78
2022-12-14T09:28:48.521Z,1000.74
2022-12-14T09:29:48.523Z,1000.73
2022-12-14T09:30:48.525Z,1000.72
2022-12-14T09:31:48.562Z,1000.67
2022-12-14T09:32:50.833Z,1000.65
2022-12-14T09:33:48.532Z,1000.65
2022-12-14T09:34:48.542Z,1000.66
2022-12-14T09:35:48.537Z,1000.66
2022-12-14T09:36:48.539Z,1000.67
2022-12-14T09:37:48.544Z,1000.65
2022-12-14T09:38:51.749Z,1000.64
2022-12-14T09:39:48.780Z,1000.60
2022-12-14T09:40:48.551Z,1000.58
2022-12-14T09:41:50.945Z,1000.57
2022-12-14T09:42:50.847Z,1000.56
2022-12-14T09:43:48.560Z,1000.58
2022-12-14T09:44:48.561Z,1000.49
2022-12-14T09:45:48.669Z,1000.49
2022-12-14T09:46:48.566Z,1000.49
2022-12-14T09:47:48.570Z,1000.44
2022-12-14T09:48:48.573Z,1000.40
2022-12-14T09:49:48.577Z,1000.41
2022-12-14T09:50:48.588Z,1000.38
2022-12-14T09:51:48.584Z,1000.38
2022-12-14T09:52:48.587Z,1000.39
2022-12-14T09:53:48.587Z,1000.35
2022-12-14T09:54:49.844Z,1000.36
2022-12-14T09:55:48.600Z,1000.32
2022-12-14T09:56:48.596Z,1000.28
2022-12-14T09:57:48.600Z,1000.32
2022-12-14T09:58:48.604Z,1000.30
2022-12-14T09:59:48.605Z,1000.29
2022-12-14T10:00:53.390Z,1000.31
2022-12-14T10:02:14.066Z,1000.25
2022-12-14T10:02:48.769Z,1000.30
2022-12-14T10:03:48.736Z,1000.29
2022-12-14T10:04:48.662Z,1000.23
2022-12-14T10:05:48.623Z,1000.26
2022-12-14T10:06:48.627Z,1000.24
2022-12-14T10:07:48.632Z,1000.26
2022-12-14T10:08:54.338Z,1000.24
2022-12-14T10:09:48.636Z,1000.21
2022-12-14T10:10:48.643Z,1000.22
2022-12-14T10:11:48.644Z,1000.22
2022-12-14T10:12:48.647Z,1000.21
2022-12-14T10:13:48.647Z,1000.21
2022-12-14T10:14:48.654Z,1000.19
2022-12-14T10:15:48.658Z,1000.13
2022-12-14T10:16:51.848Z,1000.12
2022-12-14T10:17:48.667Z,1000.13
2022-12-14T10:19:03.786Z,1000.18
2022-12-14T10:19:48.675Z,1000.10
2022-12-14T10:20:48.674Z,1000.12
2022-12-14T10:21:48.688Z,1000.08
2022-12-14T10:22:48.682Z,1000.09
2022-12-14T10:23:48.685Z,1000.06
2022-12-14T10:24:48.697Z,1000.05
2022-12-14T10:25:48.694Z,1000.03
2022-12-14T10:26:48.698Z,1000.03
2022-12-14T10:28:09.800Z,1000.01
2022-12-14T10:28:48.703Z,1000.02
2022-12-14T10:29:48.707Z,1000.00
2022-12-14T10:30:48.713Z,1000.01
2022-12-14T10:31:48.746Z,1000.01
2022-12-14T10:32:48.718Z,1000.02
2022-12-14T10:33:48.723Z,1000.02
2022-12-14T10:34:48.727Z,1000.03
2022-12-14T10:35:48.733Z,1000.00
2022-12-14T10:36:48.734Z,1000.01
2022-12-14T10:37:48.740Z,999.93
2022-12-14T10:38:49.145Z,999.90
2022-12-14T10:39:49.451Z,999.91
2022-12-14T10:40:49.463Z,999.89
2022-12-14T10:41:49.550Z,999.90
2022-12-14T10:42:49.590Z,999.85
2022-12-14T10:43:48.765Z,999.81
2022-12-14T10:44:50.076Z,999.82
2022-12-14T10:45:48.783Z,999.78
2022-12-14T10:46:48.878Z,999.81
2022-12-14T10:47:48.784Z,999.79
2022-12-14T10:48:48.900Z,999.82
2022-12-14T10:49:48.797Z,999.78
2022-12-14T10:50:49.897Z,999.74
2022-12-14T10:51:48.801Z,999.75
2022-12-14T10:52:48.803Z,999.71
2022-12-14T10:53:48.817Z,999.74
2022-12-14T10:54:48.810Z,999.68
2022-12-14T10:55:48.818Z,999.76
2022-12-14T10:56:49.769Z,999.73
2022-12-14T10:57:48.824Z,999.79
2022-12-14T10:58:48.892Z,999.77
2022-12-14T11:00:05.792Z,999.75
2022-12-14T11:00:48.858Z,999.72
2022-12-14T11:01:48.973Z,999.69
2022-12-14T11:02:50.116Z,999.68
2022-12-14T11:03:48.852Z,999.63
2022-12-14T11:04:48.854Z,999.66
2022-12-14T11:05:48.860Z,999.60
2022-12-14T11:06:48.863Z,999.60
2022-12-14T11:07:48.869Z,999.55
2022-12-14T11:08:49.072Z,999.56
2022-12-14T11:09:48.892Z,999.49
2022-12-14T11:10:48.885Z,999.50
2022-12-14T11:11:48.943Z,999.47
2022-12-14T11:12:48.893Z,999.50
2022-12-14T11:13:48.906Z,999.46
2022-12-14T11:14:48.907Z,999.46
2022-12-14T11:15:48.908Z,999.43
2022-12-14T11:16:49.031Z,999.40
2022-12-14T11:17:48.989Z,999.37
2022-12-14T11:18:48.916Z,999.37
2022-12-14T11:19:48.920Z,999.38
2022-12-14T11:20:48.930Z,999.37
2022-12-14T11:21:49.728Z,999.34
2022-12-14T11:22:48.949Z,999.29
2022-12-14T11:23:48.944Z,999.29
2022-12-14T11:24:48.950Z,999.33
2022-12-14T11:25:48.962Z,999.32
2022-12-14T11:26:48.976Z,999.31
2022-12-14T11:27:49.995Z,999.28
2022-12-14T11:28:50.356Z,999.26
2022-12-14T11:29:48.969Z,999.28
2022-12-14T11:30:49.015Z,999.27
2022-12-14T11:31:48.980Z,999.29
2022-12-14T11:32:48.982Z,999.33
2022-12-14T11:33:50.006Z,999.25
2022-12-14T11:34:48.989Z,999.31
2022-12-14T11:35:48.996Z,999.28
2022-12-14T11:36:49.000Z,999.28
2022-12-14T11:37:49.007Z,999.26
2022-12-14T11:38:49.009Z,999.27
2022-12-14T11:39:49.014Z,999.25
2022-12-14T11:40:49.020Z,999.28
2022-12-14T11:41:49.024Z,999.25
2022-12-14T11:42:49.032Z,999.29
2022-12-14T11:43:49.035Z,999.28
2022-12-14T11:44:49.038Z,999.27
2022-12-14T11:45:49.511Z,999.31
2022-12-14T11:46:49.070Z,999.29
2022-12-14T11:47:49.055Z,999.32
2022-12-14T11:48:49.057Z,999.29
2022-12-14T11:49:49.063Z,999.27
2022-12-14T11:50:49.068Z,999.28
2022-12-14T11:51:49.074Z,999.28
2022-12-14T11:52:49.101Z,999.25
2022-12-14T11:53:49.088Z,999.26
2022-12-14T11:54:50.175Z,999.27
2022-12-14T11:55:49.093Z,999.23
2022-12-14T11:56:49.098Z,999.27
2022-12-14T11:57:49.104Z,999.29
2022-12-14T11:58:49.111Z,999.25
2022-12-14T11:59:49.114Z,999.22
2022-12-14T12:00:49.117Z,999.18
2022-12-14T12:01:49.168Z,999.20
2022-12-14T12:02:49.204Z,999.15
2022-12-14T12:03:49.198Z,999.13
2022-12-14T12:04:49.140Z,999.17
2022-12-14T12:05:49.147Z,999.11
2022-12-14T12:06:49.153Z,999.12
2022-12-14T12:07:49.163Z,999.10
2022-12-14T12:08:49.161Z,999.12